Time;durP1;ratioP1;P1;durP2;ratioP2;P2;SDS_P1;SDS_P2;PMS_P1;PMS_P2;Temp;Humidity;BMP_temperature;BMP_pressure;BME280_temperature;BME280_humidity;BME280_pressure;Samples;Min_cycle;Max_cycle;Signal;HPM_P1;HPM_P2
2024/01/23 00:01:26;;;;;;;133.40;94.13;;;;;;;;;;4989065;28;20035;-68
2024/01/23 00:03:52;;;;;;;135.23;91.10;;;;;;;;;;4990063;28;20054;-68
2024/01/23 00:06:18;;;;;;;131.85;90.78;;;;;;;;;;4989798;28;20065;-67
2024/01/23 00:08:44;;;;;;;137.43;90.15;;;;;;;;;;4989698;28;20025;-68
2024/01/23 00:11:10;;;;;;;135.63;89.13;;;;;;;;;;4989136;28;20096;-67
2024/01/23 00:13:36;;;;;;;126.72;87.13;;;;;;;;;;4989613;28;20486;-68
2024/01/23 00:16:02;;;;;;;125.55;84.25;;;;;;;;;;4989690;28;20015;-67
2024/01/23 00:18:28;;;;;;;122.55;85.18;;;;;;;;;;4989532;28;20019;-68
2024/01/23 00:20:54;;;;;;;122.07;84.10;;;;;;;;;;4989017;28;20077;-68
2024/01/23 00:23:20;;;;;;;121.68;85.30;;;;;;;;;;4989566;28;20034;-68
2024/01/23 00:25:47;;;;;;;127.80;85.88;;;;;;;;;;4989758;28;20019;-66
2024/01/23 00:28:13;;;;;;;115.32;81.60;;;;;;;;;;4989452;28;20058;-67
2024/01/23 00:30:40;;;;;;;117.38;81.38;;;;;;;;;;4988773;28;20437;-67
2024/01/23 00:33:06;;;;;;;115.88;79.78;;;;;;;;;;4989597;28;20101;-68
2024/01/23 00:35:32;;;;;;;111.80;78.55;;;;;;;;;;4989355;28;20036;-67
2024/01/23 00:37:58;;;;;;;115.47;77.93;;;;;;;;;;4989721;28;20101;-67
2024/01/23 00:40:24;;;;;;;120.88;78.43;;;;;;;;;;4988695;28;20129;-67
2024/01/23 00:42:51;;;;;;;114.95;79.70;;;;;;;;;;4989302;28;20084;-67
2024/01/23 00:45:17;;;;;;;109.00;75.05;;;;;;;;;;4988965;28;20022;-68
2024/01/23 00:47:43;;;;;;;113.30;77.05;;;;;;;;;;4989582;28;20193;-66
2024/01/23 00:50:09;;;;;;;112.63;77.18;;;;;;;;;;4988746;28;20021;-67
2024/01/23 00:52:35;;;;;;;103.72;73.45;;;;;;;;;;4981225;28;20077;-66
2024/01/23 00:55:03;;;;;;;122.05;75.70;;;;;;;;;;4989188;28;20026;-66
2024/01/23 00:57:29;;;;;;;112.95;76.82;;;;;;;;;;4988905;28;20104;-67
2024/01/23 00:59:56;;;;;;;111.68;75.65;;;;;;;;;;4980436;28;20022;-66
2024/01/23 01:02:22;;;;;;;109.35;73.03;;;;;;;;;;4990820;28;20592;-66
2024/01/23 01:04:48;;;;;;;103.85;73.57;;;;;;;;;;4991197;28;20038;-67
2024/01/23 01:07:14;;;;;;;107.47;72.55;;;;;;;;;;4994063;28;20418;-65
2024/01/23 01:09:40;;;;;;;102.75;69.78;;;;;;;;;;4994700;28;20029;-66
2024/01/23 01:12:06;;;;;;;100.75;67.15;;;;;;;;;;4990837;28;20342;-67
2024/01/23 01:14:37;;;;;;;96.47;68.95;;;;;;;;;;4994483;28;20544;-68
2024/01/23 01:17:03;;;;;;;102.93;71.00;;;;;;;;;;4994696;28;20034;-67
2024/01/23 01:19:29;;;;;;;101.30;68.95;;;;;;;;;;4994277;28;20034;-67
2024/01/23 01:21:55;;;;;;;99.75;68.65;;;;;;;;;;4994070;28;20019;-66
2024/01/23 01:24:22;;;;;;;97.20;68.93;;;;;;;;;;4994559;28;20498;-66
2024/01/23 01:26:47;;;;;;;99.82;67.55;;;;;;;;;;4994296;28;20478;-66
2024/01/23 01:29:13;;;;;;;93.63;65.45;;;;;;;;;;4994471;28;20029;-64
2024/01/23 01:31:39;;;;;;;95.50;65.43;;;;;;;;;;4992939;28;20023;-66
2024/01/23 01:34:05;;;;;;;92.43;64.00;;;;;;;;;;4995048;28;20030;-67
2024/01/23 01:36:32;;;;;;;90.32;61.95;;;;;;;;;;4992286;28;20452;-68
2024/01/23 01:39:00;;;;;;;96.15;65.35;;;;;;;;;;4989573;28;20023;-67
2024/01/23 01:41:26;;;;;;;94.15;63.28;;;;;;;;;;4998850;28;20054;-67
2024/01/23 01:43:52;;;;;;;86.35;59.80;;;;;;;;;;4999812;28;20030;-67
2024/01/23 01:46:20;;;;;;;93.03;61.25;;;;;;;;;;4999081;28;20508;-67
2024/01/23 01:48:47;;;;;;;87.55;60.35;;;;;;;;;;4998720;28;20023;-68
2024/01/23 01:51:13;;;;;;;89.05;60.78;;;;;;;;;;4993435;28;20022;-69
2024/01/23 01:53:40;;;;;;;86.25;60.13;;;;;;;;;;4985943;28;20077;-69
2024/01/23 01:56:06;;;;;;;91.80;61.20;;;;;;;;;;4993987;28;20396;-68
2024/01/23 01:58:32;;;;;;;87.63;56.85;;;;;;;;;;4993976;28;20026;-69
2024/01/23 02:01:01;;;;;;;86.00;57.50;;;;;;;;;;4992038;28;20390;-68
2024/01/23 02:03:28;;;;;;;83.63;56.97;;;;;;;;;;4992766;28;20085;-68
2024/01/23 02:05:54;;;;;;;82.43;55.88;;;;;;;;;;4996587;28;20022;-68
2024/01/23 02:08:20;;;;;;;83.47;58.88;;;;;;;;;;4994736;28;20034;-68
2024/01/23 02:10:46;;;;;;;86.47;58.70;;;;;;;;;;4993256;28;20077;-67
2024/01/23 02:13:12;;;;;;;82.22;55.55;;;;;;;;;;4993933;28;20026;-68
2024/01/23 02:15:38;;;;;;;79.88;54.85;;;;;;;;;;4993811;28;20045;-67
2024/01/23 02:18:05;;;;;;;80.63;54.45;;;;;;;;;;4992844;28;20490;-67
2024/01/23 02:20:31;;;;;;;81.80;55.60;;;;;;;;;;4992601;28;20027;-68
2024/01/23 02:22:58;;;;;;;79.40;54.80;;;;;;;;;;4993265;28;20023;-69
2024/01/23 02:25:24;;;;;;;77.25;53.90;;;;;;;;;;4992938;28;20026;-68
2024/01/23 02:27:50;;;;;;;77.00;52.75;;;;;;;;;;4993265;28;20560;-69
2024/01/23 02:30:16;;;;;;;79.63;54.45;;;;;;;;;;4992551;28;20029;-68
2024/01/23 02:32:45;;;;;;;75.63;53.80;;;;;;;;;;4993302;28;20018;-68
2024/01/23 02:35:11;;;;;;;78.10;52.30;;;;;;;;;;4993089;28;20106;-68
2024/01/23 02:37:37;;;;;;;77.18;52.53;;;;;;;;;;4991411;28;20157;-67
2024/01/23 02:40:04;;;;;;;80.75;52.88;;;;;;;;;;4992602;28;20057;-67
2024/01/23 02:42:30;;;;;;;68.97;47.65;;;;;;;;;;4993022;28;20038;-67
2024/01/23 02:44:56;;;;;;;76.68;49.97;;;;;;;;;;4992909;28;20030;-68
2024/01/23 02:47:22;;;;;;;74.25;49.80;;;;;;;;;;4992576;28;20030;-65
2024/01/23 02:49:48;;;;;;;72.85;49.85;;;;;;;;;;4992426;28;20073;-65
2024/01/23 02:52:14;;;;;;;73.57;50.95;;;;;;;;;;4992565;28;20157;-65
2024/01/23 02:54:40;;;;;;;71.03;46.70;;;;;;;;;;4984727;28;20015;-67
2024/01/23 02:57:06;;;;;;;72.20;48.03;;;;;;;;;;4992495;28;20035;-67
2024/01/23 02:59:32;;;;;;;66.57;46.92;;;;;;;;;;4992114;28;20494;-67
2024/01/23 03:01:58;;;;;;;69.60;48.63;;;;;;;;;;4992182;28;20026;-67
2024/01/23 03:04:24;;;;;;;66.47;44.95;;;;;;;;;;4992662;28;20030;-67
2024/01/23 03:06:50;;;;;;;67.80;46.22;;;;;;;;;;4992286;28;20572;-67
2024/01/23 03:09:17;;;;;;;65.55;44.83;;;;;;;;;;4992601;28;20021;-66
2024/01/23 03:11:43;;;;;;;69.25;44.60;;;;;;;;;;4991909;28;20015;-67
2024/01/23 03:14:10;;;;;;;65.78;44.58;;;;;;;;;;5036968;22;20046;-66
2024/01/23 03:16:36;;;;;;;58.92;41.40;;;;;;;;;;5030390;28;20036;-67
2024/01/23 03:19:02;;;;;;;63.78;43.50;;;;;;;;;;5040008;28;20028;-65
2024/01/23 03:21:28;;;;;;;67.72;46.00;;;;;;;;;;5036011;28;20029;-67
2024/01/23 03:23:57;;;;;;;69.57;43.70;;;;;;;;;;5028316;28;20021;-67
2024/01/23 03:26:23;;;;;;;65.20;43.30;;;;;;;;;;5028039;28;20025;-66
2024/01/23 03:28:49;;;;;;;58.10;40.70;;;;;;;;;;5027469;28;20085;-66
2024/01/23 03:31:15;;;;;;;60.75;41.35;;;;;;;;;;5017097;28;20695;-67
2024/01/23 03:33:42;;;;;;;58.60;40.92;;;;;;;;;;5026806;28;20611;-66
2024/01/23 03:36:08;;;;;;;59.75;40.58;;;;;;;;;;5026781;28;20026;-66
2024/01/23 03:38:34;;;;;;;58.10;39.75;;;;;;;;;;5027971;28;20080;-67
2024/01/23 03:41:00;;;;;;;55.65;39.17;;;;;;;;;;5025914;28;20021;-67
2024/01/23 03:43:26;;;;;;;57.72;39.22;;;;;;;;;;5024733;28;20109;-66
2024/01/23 03:45:52;;;;;;;59.08;39.70;;;;;;;;;;5027934;28;20029;-67
2024/01/23 03:48:18;;;;;;;57.67;39.50;;;;;;;;;;5024609;28;20021;-66
2024/01/23 03:50:45;;;;;;;53.85;37.30;;;;;;;;;;5027309;28;20075;-66
2024/01/23 03:53:11;;;;;;;50.42;36.58;;;;;;;;;;5024963;28;20493;-68
2024/01/23 03:55:37;;;;;;;56.45;37.72;;;;;;;;;;5027585;28;20021;-67
2024/01/23 03:58:03;;;;;;;51.15;35.05;;;;;;;;;;5022578;28;20118;-71
2024/01/23 04:00:29;;;;;;;54.25;36.80;;;;;;;;;;5024119;28;20021;-71
2024/01/23 04:02:55;;;;;;;49.08;34.72;;;;;;;;;;5027145;28;20111;-71
2024/01/23 04:05:21;;;;;;;50.92;35.28;;;;;;;;;;5025727;28;20029;-70
2024/01/23 04:07:48;;;;;;;52.42;34.78;;;;;;;;;;5027862;28;20021;-71
2024/01/23 04:10:14;;;;;;;49.13;34.42;;;;;;;;;;5026954;28;20013;-68
2024/01/23 04:12:43;;;;;;;49.33;34.90;;;;;;;;;;5027332;28;20413;-67
2024/01/23 04:15:09;;;;;;;52.75;33.70;;;;;;;;;;5024733;28;20405;-67
2024/01/23 04:17:35;;;;;;;48.33;33.42;;;;;;;;;;5026784;28;20025;-67
2024/01/23 04:20:01;;;;;;;50.70;33.05;;;;;;;;;;5026838;28;20100;-67
2024/01/23 04:22:27;;;;;;;45.95;31.48;;;;;;;;;;5024893;28;20549;-67
2024/01/23 04:24:54;;;;;;;47.17;32.10;;;;;;;;;;5026615;28;20116;-67
2024/01/23 04:27:20;;;;;;;45.28;30.92;;;;;;;;;;5024226;28;20137;-65
2024/01/23 04:29:46;;;;;;;47.85;32.20;;;;;;;;;;5025887;28;20025;-66
2024/01/23 04:32:12;;;;;;;45.42;31.00;;;;;;;;;;5026862;28;20100;-67
2024/01/23 04:34:38;;;;;;;45.75;32.33;;;;;;;;;;5027169;28;20025;-66
2024/01/23 04:37:04;;;;;;;44.58;31.45;;;;;;;;;;5025146;28;20037;-68
2024/01/23 04:39:30;;;;;;;42.13;30.23;;;;;;;;;;5025957;28;20021;-67
2024/01/23 04:41:56;;;;;;;44.00;29.55;;;;;;;;;;5026344;28;20024;-68
2024/01/23 04:44:22;;;;;;;43.95;30.10;;;;;;;;;;5027130;28;20481;-68
2024/01/23 04:46:48;;;;;;;43.60;29.67;;;;;;;;;;5027297;28;20018;-67
2024/01/23 04:49:14;;;;;;;39.50;28.23;;;;;;;;;;5024184;28;20022;-66
2024/01/23 04:51:40;;;;;;;42.00;28.08;;;;;;;;;;5026929;28;20017;-67
2024/01/23 04:54:06;;;;;;;42.40;28.73;;;;;;;;;;5027500;28;20361;-67
2024/01/23 04:56:32;;;;;;;38.15;27.35;;;;;;;;;;5026947;28;20460;-67
2024/01/23 04:58:58;;;;;;;41.97;27.40;;;;;;;;;;5018102;28;20500;-67
2024/01/23 05:01:24;;;;;;;38.08;27.02;;;;;;;;;;5024575;28;20401;-67
2024/01/23 05:03:50;;;;;;;37.33;27.27;;;;;;;;;;5026118;28;20022;-67
2024/01/23 05:06:16;;;;;;;39.35;26.88;;;;;;;;;;5028915;28;20028;-66
2024/01/23 05:08:43;;;;;;;35.72;24.98;;;;;;;;;;5034309;28;20017;-68
2024/01/23 05:11:09;;;;;;;45.30;26.27;;;;;;;;;;5021324;28;20026;-68
2024/01/23 05:13:35;;;;;;;37.83;26.60;;;;;;;;;;5045425;28;20148;-69
2024/01/23 05:16:01;;;;;;;36.00;26.20;;;;;;;;;;5042988;28;20052;-70
2024/01/23 05:18:27;;;;;;;35.78;25.13;;;;;;;;;;5041598;28;20029;-68
2024/01/23 05:20:53;;;;;;;34.22;24.30;;;;;;;;;;5035186;28;20029;-67
2024/01/23 05:23:20;;;;;;;36.53;24.73;;;;;;;;;;5032132;28;20026;-67
2024/01/23 05:25:46;;;;;;;38.90;25.33;;;;;;;;;;5028782;28;20029;-66
2024/01/23 05:28:12;;;;;;;38.17;24.55;;;;;;;;;;5027894;28;20080;-66
2024/01/23 05:30:38;;;;;;;38.30;25.05;;;;;;;;;;5026293;28;20026;-66
2024/01/23 05:33:04;;;;;;;37.92;23.77;;;;;;;;;;5024185;28;20021;-67
2024/01/23 05:35:30;;;;;;;31.23;22.63;;;;;;;;;;5026129;28;20026;-67
2024/01/23 05:37:56;;;;;;;36.38;24.30;;;;;;;;;;5027132;28;20449;-69
2024/01/23 05:40:23;;;;;;;36.30;23.73;;;;;;;;;;5026100;28;20105;-67
2024/01/23 05:42:49;;;;;;;38.88;23.45;;;;;;;;;;5027133;28;20049;-68
2024/01/23 05:45:15;;;;;;;39.83;24.23;;;;;;;;;;5018923;28;20025;-70
2024/01/23 05:47:41;;;;;;;37.42;23.95;;;;;;;;;;5010232;28;20030;-66
2024/01/23 05:50:07;;;;;;;33.90;22.98;;;;;;;;;;5015987;28;20322;-67
2024/01/23 05:52:33;;;;;;;36.03;23.02;;;;;;;;;;5026284;28;20026;-66
2024/01/23 05:55:00;;;;;;;35.95;22.95;;;;;;;;;;5024092;28;20230;-68
2024/01/23 05:57:26;;;;;;;36.53;22.02;;;;;;;;;;5028087;28;20213;-65
2024/01/23 05:59:52;;;;;;;32.72;21.83;;;;;;;;;;5022734;28;20096;-66
2024/01/23 06:02:18;;;;;;;36.83;21.70;;;;;;;;;;5024447;28;20029;-65
2024/01/23 06:04:45;;;;;;;35.70;20.08;;;;;;;;;;5025969;28;20030;-68
2024/01/23 06:07:11;;;;;;;41.50;22.60;;;;;;;;;;5025291;28;20390;-66
2024/01/23 06:09:37;;;;;;;43.70;21.35;;;;;;;;;;5027411;28;20026;-67
2024/01/23 06:12:03;;;;;;;40.95;20.67;;;;;;;;;;5028921;28;20071;-68
2024/01/23 06:14:29;;;;;;;31.77;18.88;;;;;;;;;;5029350;28;20033;-66
2024/01/23 06:16:56;;;;;;;68.80;20.63;;;;;;;;;;5028583;28;20061;-67
2024/01/23 06:19:22;;;;;;;62.50;20.83;;;;;;;;;;5024924;28;20049;-63
2024/01/23 06:21:48;;;;;;;42.35;21.23;;;;;;;;;;5023085;28;20056;-66
2024/01/23 06:24:15;;;;;;;60.53;21.85;;;;;;;;;;5033605;28;20041;-68
2024/01/23 06:26:41;;;;;;;41.38;12.18;;;;;;;;;;5022865;28;20032;-69
2024/01/23 06:29:07;;;;;;;7.22;3.60;;;;;;;;;;5028728;28;20037;-69
2024/01/23 06:31:33;;;;;;;16.35;5.85;;;;;;;;;;5020014;28;20076;-68
2024/01/23 06:34:00;;;;;;;15.27;4.75;;;;;;;;;;5014696;28;20030;-68
2024/01/23 06:36:27;;;;;;;6.53;3.15;;;;;;;;;;5027266;28;20516;-69
2024/01/23 06:38:53;;;;;;;9.10;3.45;;;;;;;;;;5028425;28;20022;-68
2024/01/23 06:41:19;;;;;;;4.95;2.53;;;;;;;;;;5025344;28;20142;-68
2024/01/23 06:43:45;;;;;;;8.30;2.50;;;;;;;;;;5028777;28;20059;-69
2024/01/23 06:46:11;;;;;;;5.63;2.22;;;;;;;;;;5028660;28;20017;-69
2024/01/23 06:48:37;;;;;;;5.30;2.28;;;;;;;;;;5028584;28;20014;-69
2024/01/23 06:51:03;;;;;;;4.65;1.88;;;;;;;;;;5024659;28;20022;-68
2024/01/23 06:53:29;;;;;;;11.27;2.28;;;;;;;;;;5026507;28;20394;-66
2024/01/23 06:55:55;;;;;;;10.65;2.83;;;;;;;;;;5016270;28;20558;-68
2024/01/23 06:58:21;;;;;;;15.95;3.28;;;;;;;;;;5017869;28;20034;-68
2024/01/23 07:00:47;;;;;;;11.05;2.75;;;;;;;;;;5026151;28;20021;-69
2024/01/23 07:03:13;;;;;;;19.48;3.53;;;;;;;;;;5023513;28;20075;-68
2024/01/23 07:05:39;;;;;;;6.07;2.63;;;;;;;;;;5027070;28;20661;-66
2024/01/23 07:08:05;;;;;;;2.95;1.48;;;;;;;;;;5027140;28;20120;-64
2024/01/23 07:10:31;;;;;;;4.05;1.80;;;;;;;;;;5026583;28;20018;-65
2024/01/23 07:12:57;;;;;;;4.70;1.50;;;;;;;;;;5026258;28;20072;-64
2024/01/23 07:15:23;;;;;;;4.15;1.13;;;;;;;;;;5025089;28;20030;-65
2024/01/23 07:17:51;;;;;;;3.40;1.05;;;;;;;;;;5027539;28;20516;-65
2024/01/23 07:20:17;;;;;;;3.63;1.58;;;;;;;;;;5026836;28;20021;-65
2024/01/23 07:22:43;;;;;;;10.82;1.42;;;;;;;;;;5028466;28;20024;-66
2024/01/23 07:25:09;;;;;;;3.35;1.20;;;;;;;;;;5025424;28;20068;-66
2024/01/23 07:27:35;;;;;;;5.65;1.38;;;;;;;;;;5027390;28;20029;-65
2024/01/23 07:30:02;;;;;;;8.63;1.70;;;;;;;;;;5027515;28;20024;-66
2024/01/23 07:32:28;;;;;;;4.28;1.02;;;;;;;;;;5028024;28;20096;-65
2024/01/23 07:34:54;;;;;;;4.63;1.45;;;;;;;;;;5027194;28;20029;-66
2024/01/23 07:37:20;;;;;;;3.80;1.27;;;;;;;;;;5025616;28;20156;-66
2024/01/23 07:39:47;;;;;;;2.88;0.70;;;;;;;;;;5032169;28;20028;-66
2024/01/23 07:42:13;;;;;;;8.57;1.40;;;;;;;;;;5035054;28;20132;-66
2024/01/23 07:44:39;;;;;;;7.20;1.42;;;;;;;;;;5027439;28;20030;-67
2024/01/23 07:47:05;;;;;;;3.20;1.45;;;;;;;;;;5019915;28;20022;-67
2024/01/23 07:49:32;;;;;;;4.10;2.30;;;;;;;;;;5020371;28;20022;-66
2024/01/23 07:51:58;;;;;;;11.23;4.55;;;;;;;;;;5018028;28;20405;-66
2024/01/23 07:54:24;;;;;;;9.45;5.32;;;;;;;;;;5011042;28;20025;-66
2024/01/23 07:56:53;;;;;;;8.88;5.28;;;;;;;;;;5011409;28;20498;-67
2024/01/23 07:59:19;;;;;;;10.73;5.47;;;;;;;;;;5010805;28;20485;-68
2024/01/23 08:01:45;;;;;;;17.83;5.47;;;;;;;;;;5010534;28;20030;-67
2024/01/23 08:04:11;;;;;;;9.15;5.80;;;;;;;;;;5011825;28;20507;-68
2024/01/23 08:06:37;;;;;;;12.43;6.35;;;;;;;;;;5011794;28;20481;-69
2024/01/23 08:09:06;;;;;;;10.07;6.05;;;;;;;;;;5012034;28;20075;-68
2024/01/23 08:11:32;;;;;;;10.88;6.68;;;;;;;;;;5010991;28;20022;-67
2024/01/23 08:13:58;;;;;;;11.65;7.50;;;;;;;;;;5011464;28;20394;-67
2024/01/23 08:16:27;;;;;;;11.88;7.57;;;;;;;;;;5010947;28;20032;-67
2024/01/23 08:18:54;;;;;;;11.80;7.22;;;;;;;;;;5011734;28;20028;-67
2024/01/23 08:21:20;;;;;;;13.45;7.82;;;;;;;;;;5010972;28;20028;-67
2024/01/23 08:23:46;;;;;;;13.10;8.05;;;;;;;;;;5011646;28;20025;-66
2024/01/23 08:26:13;;;;;;;14.50;8.68;;;;;;;;;;5011605;28;20018;-66
2024/01/23 08:28:42;;;;;;;14.35;9.25;;;;;;;;;;5011611;28;20212;-66
2024/01/23 08:31:08;;;;;;;16.25;10.30;;;;;;;;;;5010820;28;20030;-66
2024/01/23 08:33:34;;;;;;;14.43;9.73;;;;;;;;;;5011375;28;20243;-66
2024/01/23 08:36:01;;;;;;;18.48;11.30;;;;;;;;;;5011642;28;20033;-67
2024/01/23 08:38:27;;;;;;;15.43;10.35;;;;;;;;;;5011340;28;20102;-67
2024/01/23 08:40:53;;;;;;;20.02;11.80;;;;;;;;;;5010709;28;20537;-66
2024/01/23 08:43:19;;;;;;;16.42;12.13;;;;;;;;;;5011443;28;20086;-67
2024/01/23 08:45:45;;;;;;;19.75;13.35;;;;;;;;;;5011458;28;20100;-66
2024/01/23 08:48:11;;;;;;;20.33;11.60;;;;;;;;;;5011352;28;20320;-67
2024/01/23 08:50:37;;;;;;;17.35;11.75;;;;;;;;;;5011033;28;20029;-66
2024/01/23 08:53:04;;;;;;;17.55;11.88;;;;;;;;;;5011552;28;20019;-65
2024/01/23 08:55:30;;;;;;;16.98;12.05;;;;;;;;;;5011607;28;20026;-66
2024/01/23 08:57:56;;;;;;;20.55;13.02;;;;;;;;;;5011165;28;20148;-67
2024/01/23 09:00:22;;;;;;;18.85;13.35;;;;;;;;;;5010674;28;20109;-66
2024/01/23 09:02:48;;;;;;;19.73;13.90;;;;;;;;;;5011228;28;20536;-67
2024/01/23 09:05:14;;;;;;;22.27;14.23;;;;;;;;;;5011235;28;20227;-66
2024/01/23 09:07:40;;;;;;;24.85;16.60;;;;;;;;;;5011288;28;20464;-66
2024/01/23 09:10:07;;;;;;;23.00;15.93;;;;;;;;;;5010548;28;20022;-66
2024/01/23 09:12:35;;;;;;;23.48;16.48;;;;;;;;;;5010992;28;20509;-67
2024/01/23 09:15:04;;;;;;;26.42;17.42;;;;;;;;;;5034159;22;20053;-69
2024/01/23 09:17:30;;;;;;;22.92;16.85;;;;;;;;;;5010807;28;20026;-69
2024/01/23 09:19:56;;;;;;;24.35;16.42;;;;;;;;;;5009966;28;20453;-69
2024/01/23 09:22:22;;;;;;;26.60;17.73;;;;;;;;;;5010524;28;20030;-69
2024/01/23 09:24:48;;;;;;;25.05;17.77;;;;;;;;;;5010598;28;20029;-68
2024/01/23 09:27:14;;;;;;;24.10;17.20;;;;;;;;;;5012703;28;20030;-69
2024/01/23 09:29:42;;;;;;;25.40;17.08;;;;;;;;;;5014357;28;20080;-69
2024/01/23 09:32:08;;;;;;;24.65;17.30;;;;;;;;;;5013799;28;20757;-68
2024/01/23 09:34:34;;;;;;;26.52;17.42;;;;;;;;;;5014574;28;20072;-69
2024/01/23 09:37:00;;;;;;;26.00;17.42;;;;;;;;;;5014402;28;20034;-69
2024/01/23 09:39:26;;;;;;;24.27;16.95;;;;;;;;;;5014196;28;20037;-69
2024/01/23 09:41:54;;;;;;;26.67;17.08;;;;;;;;;;5013762;28;20021;-69
2024/01/23 09:44:20;;;;;;;24.08;17.13;;;;;;;;;;5014317;28;20046;-69
2024/01/23 09:46:47;;;;;;;25.00;17.35;;;;;;;;;;5012786;28;20029;-69
2024/01/23 09:49:14;;;;;;;24.58;16.90;;;;;;;;;;5012861;28;20030;-69
2024/01/23 09:51:43;;;;;;;22.70;17.00;;;;;;;;;;5013458;28;20033;-69
2024/01/23 09:54:13;;;;;;;23.27;16.85;;;;;;;;;;5013942;28;20018;-69
2024/01/23 09:56:39;;;;;;;24.25;17.30;;;;;;;;;;5013897;28;20022;-69
2024/01/23 09:59:06;;;;;;;25.40;17.80;;;;;;;;;;5013858;28;20018;-68
2024/01/23 10:01:33;;;;;;;51.40;27.48;;;;;;;;;;5013295;28;20026;-68
2024/01/23 10:04:00;;;;;;;39.50;24.67;;;;;;;;;;5013883;28;20409;-68
2024/01/23 10:06:26;;;;;;;34.28;23.70;;;;;;;;;;5013702;28;20105;-68
2024/01/23 10:08:52;;;;;;;37.40;25.58;;;;;;;;;;5013702;28;20026;-69
2024/01/23 10:11:18;;;;;;;36.20;24.23;;;;;;;;;;5013145;28;20026;-69
2024/01/23 10:13:46;;;;;;;37.25;25.80;;;;;;;;;;5013379;28;20056;-68
2024/01/23 10:16:12;;;;;;;34.85;24.70;;;;;;;;;;5012348;28;20026;-69
2024/01/23 10:18:38;;;;;;;43.03;26.25;;;;;;;;;;5013624;28;20034;-68
2024/01/23 10:21:04;;;;;;;36.75;26.30;;;;;;;;;;5011415;28;20171;-68
2024/01/23 10:23:33;;;;;;;38.17;25.65;;;;;;;;;;5013469;28;20033;-70
2024/01/23 10:25:59;;;;;;;38.15;25.83;;;;;;;;;;5013624;28;20099;-68
2024/01/23 10:28:25;;;;;;;38.00;26.77;;;;;;;;;;5013310;28;20072;-68
2024/01/23 10:30:53;;;;;;;36.22;25.25;;;;;;;;;;5012745;28;20029;-68
2024/01/23 10:33:19;;;;;;;37.67;25.30;;;;;;;;;;5013169;28;20370;-68
2024/01/23 10:35:46;;;;;;;36.15;26.58;;;;;;;;;;5012927;28;20026;-68
2024/01/23 10:38:14;;;;;;;37.22;26.85;;;;;;;;;;5012061;28;20129;-68
2024/01/23 10:40:40;;;;;;;36.83;26.45;;;;;;;;;;5011972;28;20382;-68
2024/01/23 10:43:07;;;;;;;40.88;27.17;;;;;;;;;;5012606;28;20040;-68
2024/01/23 10:45:35;;;;;;;45.15;31.27;;;;;;;;;;5012936;28;20132;-66
2024/01/23 10:48:02;;;;;;;45.90;30.20;;;;;;;;;;5012886;28;20037;-69
2024/01/23 10:50:29;;;;;;;43.92;28.77;;;;;;;;;;5012323;28;20029;-69
2024/01/23 10:52:58;;;;;;;44.10;28.83;;;;;;;;;;5012918;28;20022;-70
2024/01/23 10:55:27;;;;;;;42.00;29.05;;;;;;;;;;5012873;28;20026;-69
2024/01/23 10:57:56;;;;;;;42.35;27.67;;;;;;;;;;5012895;28;20414;-70
2024/01/23 11:00:23;;;;;;;42.90;28.42;;;;;;;;;;5012361;28;20071;-69
2024/01/23 11:02:53;;;;;;;53.72;28.95;;;;;;;;;;5012774;28;20116;-70
2024/01/23 11:05:30;;;;;;;48.80;25.88;;;;;;;;;;5013236;28;20032;-69
2024/01/23 11:07:57;;;;;;;40.00;26.02;;;;;;;;;;5012233;28;20026;-69
2024/01/23 11:10:30;;;;;;;41.63;26.25;;;;;;;;;;5012215;28;20041;-68
2024/01/23 11:13:10;;;;;;;69.43;26.40;;;;;;;;;;5012336;28;20032;-70
2024/01/23 11:15:36;;;;;;;42.75;26.08;;;;;;;;;;5012420;28;20423;-70
2024/01/23 11:18:21;;;;;;;41.22;25.70;;;;;;;;;;5012465;28;20026;-70
2024/01/23 11:21:10;;;;;;;34.63;23.70;;;;;;;;;;5011645;28;20034;-70
2024/01/23 11:23:37;;;;;;;42.10;24.30;;;;;;;;;;5010889;28;20508;-70
2024/01/23 11:26:14;;;;;;;40.85;23.52;;;;;;;;;;5012401;28;20109;-70
2024/01/23 11:28:42;;;;;;;32.97;23.08;;;;;;;;;;5012211;28;20026;-66
2024/01/23 11:31:25;;;;;;;32.05;22.85;;;;;;;;;;5010186;28;20030;-69
2024/01/23 11:33:52;;;;;;;34.75;23.10;;;;;;;;;;5010966;28;20401;-69
2024/01/23 11:36:30;;;;;;;36.00;22.20;;;;;;;;;;5012195;28;20022;-69
2024/01/23 11:38:57;;;;;;;29.92;21.52;;;;;;;;;;5010880;28;20397;-70
2024/01/23 11:41:24;;;;;;;30.73;21.08;;;;;;;;;;5011070;28;20041;-68
2024/01/23 11:43:50;;;;;;;32.85;22.65;;;;;;;;;;5011969;28;20091;-70
2024/01/23 11:46:21;;;;;;;32.70;20.98;;;;;;;;;;5009064;28;20025;-69
2024/01/23 11:48:48;;;;;;;32.75;20.70;;;;;;;;;;5011995;28;20033;-68
2024/01/23 11:51:14;;;;;;;29.65;19.35;;;;;;;;;;5010065;28;20629;-67
2024/01/23 11:53:43;;;;;;;28.58;19.35;;;;;;;;;;5011914;28;20033;-68
2024/01/23 11:56:10;;;;;;;29.17;20.08;;;;;;;;;;5010485;28;20049;-68
2024/01/23 11:58:36;;;;;;;27.42;19.08;;;;;;;;;;5011861;28;20049;-68
2024/01/23 12:01:03;;;;;;;31.75;20.45;;;;;;;;;;5011068;28;20026;-69
2024/01/23 12:03:29;;;;;;;30.58;19.63;;;;;;;;;;5011770;28;20033;-68
2024/01/23 12:05:55;;;;;;;30.45;19.92;;;;;;;;;;5011544;28;20026;-68
2024/01/23 12:08:23;;;;;;;32.80;19.45;;;;;;;;;;5011457;28;20029;-68
2024/01/23 12:10:50;;;;;;;28.23;18.45;;;;;;;;;;5010775;28;20057;-68
2024/01/23 12:13:16;;;;;;;26.85;18.35;;;;;;;;;;5011414;28;20018;-68
2024/01/23 12:15:42;;;;;;;27.90;18.88;;;;;;;;;;5011825;28;20037;-68
2024/01/23 12:18:14;;;;;;;25.38;17.88;;;;;;;;;;5011129;28;20042;-68
2024/01/23 12:20:42;;;;;;;25.60;17.90;;;;;;;;;;5010647;28;20033;-68
2024/01/23 12:23:08;;;;;;;26.98;18.10;;;;;;;;;;5010437;28;20396;-68
2024/01/23 12:25:34;;;;;;;23.17;16.02;;;;;;;;;;5009124;28;20064;-68
2024/01/23 12:28:00;;;;;;;25.15;16.00;;;;;;;;;;5010310;28;20116;-68
2024/01/23 12:30:27;;;;;;;26.77;17.60;;;;;;;;;;5009355;28;20026;-68
2024/01/23 12:32:53;;;;;;;25.50;17.25;;;;;;;;;;5011437;28;20033;-68
2024/01/23 12:35:20;;;;;;;23.17;15.95;;;;;;;;;;5011290;28;20033;-67
2024/01/23 12:37:46;;;;;;;22.35;16.48;;;;;;;;;;5010176;28;20083;-68
2024/01/23 12:40:14;;;;;;;24.13;16.23;;;;;;;;;;5009817;28;20030;-68
2024/01/23 12:42:40;;;;;;;30.25;16.00;;;;;;;;;;5011026;28;20511;-67
2024/01/23 12:45:11;;;;;;;22.98;15.85;;;;;;;;;;5010719;28;20083;-68
2024/01/23 12:47:38;;;;;;;22.73;15.82;;;;;;;;;;5010838;28;20436;-68
2024/01/23 12:50:05;;;;;;;24.42;16.00;;;;;;;;;;5009297;28;20076;-66
2024/01/23 12:52:31;;;;;;;24.75;15.45;;;;;;;;;;5011436;28;20053;-68
2024/01/23 12:54:57;;;;;;;23.27;15.15;;;;;;;;;;5011057;28;20022;-69
2024/01/23 12:57:23;;;;;;;24.33;15.48;;;;;;;;;;5010733;28;20101;-68
2024/01/23 12:59:49;;;;;;;20.15;14.60;;;;;;;;;;5010653;28;20054;-67
2024/01/23 13:02:15;;;;;;;20.75;14.23;;;;;;;;;;5013076;28;20053;-67
2024/01/23 13:04:41;;;;;;;22.83;14.60;;;;;;;;;;5014934;28;20556;-68
2024/01/23 13:07:08;;;;;;;23.27;15.18;;;;;;;;;;5013509;28;20485;-68
2024/01/23 13:09:34;;;;;;;22.85;15.02;;;;;;;;;;5014606;28;20078;-68
2024/01/23 13:12:00;;;;;;;19.10;14.02;;;;;;;;;;5014392;28;20429;-68
2024/01/23 13:14:28;;;;;;;22.50;14.38;;;;;;;;;;5014717;28;20375;-68
2024/01/23 13:16:54;;;;;;;21.73;14.55;;;;;;;;;;5015246;28;20032;-68
2024/01/23 13:19:20;;;;;;;21.15;14.13;;;;;;;;;;5014299;28;20033;-66
2024/01/23 13:21:48;;;;;;;20.98;14.23;;;;;;;;;;5013833;28;20032;-68
2024/01/23 13:24:14;;;;;;;19.92;13.77;;;;;;;;;;5015028;28;20037;-68
2024/01/23 13:26:40;;;;;;;19.85;13.07;;;;;;;;;;5014824;28;20477;-68
2024/01/23 13:29:08;;;;;;;19.50;13.38;;;;;;;;;;5014323;28;20026;-68
2024/01/23 13:31:35;;;;;;;19.45;12.50;;;;;;;;;;5017353;28;20038;-68
2024/01/23 13:34:01;;;;;;;18.27;12.80;;;;;;;;;;5018721;28;20033;-68
2024/01/23 13:36:27;;;;;;;18.48;12.73;;;;;;;;;;5018659;28;20014;-68
2024/01/23 13:38:53;;;;;;;17.67;11.32;;;;;;;;;;5015635;28;20105;-68
2024/01/23 13:41:20;;;;;;;26.35;11.48;;;;;;;;;;5013736;28;20105;-67
2024/01/23 13:43:46;;;;;;;17.95;10.95;;;;;;;;;;5014341;28;20042;-70
2024/01/23 13:46:12;;;;;;;17.42;10.10;;;;;;;;;;5014327;28;20029;-69
2024/01/23 13:48:38;;;;;;;19.02;10.27;;;;;;;;;;5014148;28;20037;-69
2024/01/23 13:51:04;;;;;;;15.15;9.02;;;;;;;;;;5013529;28;20018;-66
2024/01/23 13:53:30;;;;;;;16.88;9.60;;;;;;;;;;5014230;28;20022;-67
2024/01/23 13:55:57;;;;;;;20.48;9.48;;;;;;;;;;5014146;28;20500;-66
2024/01/23 13:58:23;;;;;;;17.48;7.95;;;;;;;;;;5013946;28;20082;-67
2024/01/23 14:00:49;;;;;;;19.20;8.85;;;;;;;;;;5013240;28;20034;-67
2024/01/23 14:03:15;;;;;;;17.60;8.85;;;;;;;;;;5013962;28;20033;-67
2024/01/23 14:05:41;;;;;;;17.40;8.57;;;;;;;;;;5014234;28;20034;-68
2024/01/23 14:08:08;;;;;;;15.85;8.50;;;;;;;;;;5013848;28;20026;-67
2024/01/23 14:10:34;;;;;;;14.23;9.10;;;;;;;;;;5012984;28;20032;-67
2024/01/23 14:13:00;;;;;;;11.82;8.13;;;;;;;;;;5012678;28;20026;-68
2024/01/23 14:15:26;;;;;;;12.98;8.02;;;;;;;;;;5013563;28;20441;-66